PANC/ANC METAR and TAF weather

Enter ICAO airport designator
Station Type Date Time Source
PANC METAR 2018/12/19 03:07 UTC NOAA

PANC 190307Z 36006KT 10SM FEW008 BKN016 OVC021 M06/M09 A2903 RMK AO2 T10611089


Station Type Date Time Source
PANC Decoded METAR 2018/12/19 03:07 UTC NOAA

TED STEVENS ANCHORAGE INTERNATIONAL , AK, United States (PANC) 61-10N 150-02W 48M
Dec 18, 2018 - 10:07 PM EST / 2018.12.19 0307 UTC
Wind: from the N (360 degrees) at 7 MPH (6 KT):0
Visibility: 10 mile(s):0
Sky conditions: overcast
Temperature: 21.0 F (-6.1 C)
Windchill: 12 F (-11 C):1
Dew Point: 16.0 F (-8.9 C)
Relative Humidity: 80%
Pressure (altimeter): 29.03 in. Hg (983 hPa)
ob: PANC 190307Z 36006KT 10SM FEW008 BKN016 OVC021 M06/M09 A2903 RMK AO2 T10611089
cycle: 3

Station Type Date Time Source
PANC TAF 2018/12/19 01:12 UTC NOAA

TAF
AMD PANC 190110Z 1901/2006 36005KT 6SM -SN FEW008 SCT020 OVC045
TEMPO 1901/1905 36005KT 3SM -SN BR SCT008 OVC020
FM190500 36005KT 6SM -SN BKN022
FM191800 36011KT P6SM VCSH SCT025 OVC050


Example: see airport list